Аэропорт: Ульяновск-Центральный. Ульяновск

ICAO: UWLL

METAR:
2024-04-22 23:00:00
UWLL 222300Z 29005MPS CAVOK 12/11 Q1017 R02/090065 NOSIG RMK QFE750/1000
TAF:
2024-04-22 19:52:00
TAF UWLL 221952Z 2221/2321 32003G08MPS 9999 BKN030 TX19/2312Z TN11/2303Z 
  TEMPO 2221/2315 27010G17MPS 3000 -TSRA BKN010 BKN016CB